sensor_id;sensor_type;location;lat;lon;timestamp;P1;durP1;ratioP1;P2;durP2;ratioP2
31386;SDS011;18017;50.124;8.688;2022-11-09T00:01:26;6.40;;;1.30;;
31386;SDS011;18017;50.124;8.688;2022-11-09T00:03:53;5.70;;;1.45;;
31386;SDS011;18017;50.124;8.688;2022-11-09T00:06:23;4.85;;;1.20;;
31386;SDS011;18017;50.124;8.688;2022-11-09T00:08:50;3.90;;;1.17;;
31386;SDS011;18017;50.124;8.688;2022-11-09T00:11:16;2.95;;;1.15;;
31386;SDS011;18017;50.124;8.688;2022-11-09T00:13:42;5.95;;;1.30;;
31386;SDS011;18017;50.124;8.688;2022-11-09T00:16:09;3.85;;;0.93;;
31386;SDS011;18017;50.124;8.688;2022-11-09T00:18:38;5.72;;;1.88;;
31386;SDS011;18017;50.124;8.688;2022-11-09T00:21:05;3.90;;;0.80;;
31386;SDS011;18017;50.124;8.688;2022-11-09T00:23:32;4.82;;;1.05;;
31386;SDS011;18017;50.124;8.688;2022-11-09T00:25:59;4.90;;;1.15;;
31386;SDS011;18017;50.124;8.688;2022-11-09T00:28:25;2.78;;;1.08;;
31386;SDS011;18017;50.124;8.688;2022-11-09T00:30:50;5.22;;;1.25;;
31386;SDS011;18017;50.124;8.688;2022-11-09T00:33:22;3.88;;;1.48;;
31386;SDS011;18017;50.124;8.688;2022-11-09T00:35:47;11.93;;;1.42;;
31386;SDS011;18017;50.124;8.688;2022-11-09T00:38:13;16.55;;;1.63;;
31386;SDS011;18017;50.124;8.688;2022-11-09T00:40:38;6.15;;;1.40;;
31386;SDS011;18017;50.124;8.688;2022-11-09T00:43:04;9.80;;;1.60;;
31386;SDS011;18017;50.124;8.688;2022-11-09T00:45:29;3.80;;;1.50;;
31386;SDS011;18017;50.124;8.688;2022-11-09T00:47:55;5.70;;;1.80;;
31386;SDS011;18017;50.124;8.688;2022-11-09T00:50:20;5.07;;;1.98;;
31386;SDS011;18017;50.124;8.688;2022-11-09T00:52:46;4.43;;;1.60;;
31386;SDS011;18017;50.124;8.688;2022-11-09T00:55:12;9.45;;;1.95;;
31386;SDS011;18017;50.124;8.688;2022-11-09T00:57:38;7.70;;;2.10;;
31386;SDS011;18017;50.124;8.688;2022-11-09T01:00:03;7.78;;;2.00;;
31386;SDS011;18017;50.124;8.688;2022-11-09T01:02:30;7.22;;;1.80;;
31386;SDS011;18017;50.124;8.688;2022-11-09T01:04:55;8.10;;;2.53;;
31386;SDS011;18017;50.124;8.688;2022-11-09T01:07:21;6.35;;;2.25;;
31386;SDS011;18017;50.124;8.688;2022-11-09T01:09:47;9.93;;;2.10;;
31386;SDS011;18017;50.124;8.688;2022-11-09T01:12:12;8.00;;;2.38;;
31386;SDS011;18017;50.124;8.688;2022-11-09T01:14:38;5.55;;;2.03;;
31386;SDS011;18017;50.124;8.688;2022-11-09T01:17:03;4.13;;;2.03;;
31386;SDS011;18017;50.124;8.688;2022-11-09T01:19:29;7.30;;;1.95;;
31386;SDS011;18017;50.124;8.688;2022-11-09T01:21:54;7.30;;;2.20;;
31386;SDS011;18017;50.124;8.688;2022-11-09T01:24:20;5.80;;;2.00;;
31386;SDS011;18017;50.124;8.688;2022-11-09T01:26:46;5.60;;;1.70;;
31386;SDS011;18017;50.124;8.688;2022-11-09T01:29:11;7.35;;;1.98;;
31386;SDS011;18017;50.124;8.688;2022-11-09T01:31:37;6.00;;;2.03;;
31386;SDS011;18017;50.124;8.688;2022-11-09T01:34:02;9.95;;;2.20;;
31386;SDS011;18017;50.124;8.688;2022-11-09T01:36:28;6.28;;;2.30;;
31386;SDS011;18017;50.124;8.688;2022-11-09T01:38:54;4.68;;;2.05;;
31386;SDS011;18017;50.124;8.688;2022-11-09T01:41:23;7.32;;;2.45;;
31386;SDS011;18017;50.124;8.688;2022-11-09T01:52:24;4.78;;;2.33;;
31386;SDS011;18017;50.124;8.688;2022-11-09T01:54:58;4.50;;;2.17;;
31386;SDS011;18017;50.124;8.688;2022-11-09T01:57:34;5.63;;;2.22;;
31386;SDS011;18017;50.124;8.688;2022-11-09T02:00:04;7.53;;;2.17;;
31386;SDS011;18017;50.124;8.688;2022-11-09T02:02:32;5.70;;;2.40;;
31386;SDS011;18017;50.124;8.688;2022-11-09T02:05:00;7.00;;;2.72;;
31386;SDS011;18017;50.124;8.688;2022-11-09T02:07:29;8.38;;;2.47;;
31386;SDS011;18017;50.124;8.688;2022-11-09T02:12:52;6.18;;;2.70;;
31386;SDS011;18017;50.124;8.688;2022-11-09T02:15:18;5.53;;;2.17;;
31386;SDS011;18017;50.124;8.688;2022-11-09T02:17:45;5.93;;;2.20;;
31386;SDS011;18017;50.124;8.688;2022-11-09T02:20:16;8.43;;;2.17;;
31386;SDS011;18017;50.124;8.688;2022-11-09T02:22:42;7.22;;;2.25;;
31386;SDS011;18017;50.124;8.688;2022-11-09T02:25:08;6.65;;;2.20;;
31386;SDS011;18017;50.124;8.688;2022-11-09T02:27:34;7.32;;;2.88;;
31386;SDS011;18017;50.124;8.688;2022-11-09T02:30:00;8.75;;;2.35;;
31386;SDS011;18017;50.124;8.688;2022-11-09T02:32:28;5.40;;;2.13;;
31386;SDS011;18017;50.124;8.688;2022-11-09T02:34:55;14.38;;;2.58;;
31386;SDS011;18017;50.124;8.688;2022-11-09T02:37:37;6.15;;;2.20;;
31386;SDS011;18017;50.124;8.688;2022-11-09T02:40:06;9.20;;;2.10;;
31386;SDS011;18017;50.124;8.688;2022-11-09T02:42:37;8.65;;;2.10;;
31386;SDS011;18017;50.124;8.688;2022-11-09T02:45:03;4.85;;;1.38;;
31386;SDS011;18017;50.124;8.688;2022-11-09T02:47:29;7.28;;;1.80;;
31386;SDS011;18017;50.124;8.688;2022-11-09T02:49:55;8.27;;;2.00;;
31386;SDS011;18017;50.124;8.688;2022-11-09T02:52:22;4.03;;;1.77;;
31386;SDS011;18017;50.124;8.688;2022-11-09T02:54:47;5.05;;;1.45;;
31386;SDS011;18017;50.124;8.688;2022-11-09T02:57:13;4.03;;;1.10;;
31386;SDS011;18017;50.124;8.688;2022-11-09T02:59:39;6.38;;;1.25;;
31386;SDS011;18017;50.124;8.688;2022-11-09T03:02:04;3.03;;;1.00;;
31386;SDS011;18017;50.124;8.688;2022-11-09T03:04:30;4.78;;;1.42;;
31386;SDS011;18017;50.124;8.688;2022-11-09T03:06:56;2.83;;;1.15;;
31386;SDS011;18017;50.124;8.688;2022-11-09T03:09:21;4.03;;;0.90;;
31386;SDS011;18017;50.124;8.688;2022-11-09T03:11:47;3.55;;;1.27;;
31386;SDS011;18017;50.124;8.688;2022-11-09T03:14:13;3.50;;;0.98;;
31386;SDS011;18017;50.124;8.688;2022-11-09T03:16:39;3.28;;;1.08;;
31386;SDS011;18017;50.124;8.688;2022-11-09T03:19:05;3.65;;;0.85;;
31386;SDS011;18017;50.124;8.688;2022-11-09T03:21:30;3.38;;;1.08;;
31386;SDS011;18017;50.124;8.688;2022-11-09T03:23:56;3.08;;;0.95;;
31386;SDS011;18017;50.124;8.688;2022-11-09T03:26:21;7.15;;;1.40;;
31386;SDS011;18017;50.124;8.688;2022-11-09T03:28:47;1.92;;;0.70;;
31386;SDS011;18017;50.124;8.688;2022-11-09T03:31:13;4.82;;;1.00;;
31386;SDS011;18017;50.124;8.688;2022-11-09T03:33:39;2.33;;;0.82;;
31386;SDS011;18017;50.124;8.688;2022-11-09T03:36:05;2.83;;;0.90;;
31386;SDS011;18017;50.124;8.688;2022-11-09T03:38:31;2.60;;;0.77;;
31386;SDS011;18017;50.124;8.688;2022-11-09T03:41:00;1.38;;;0.80;;
31386;SDS011;18017;50.124;8.688;2022-11-09T03:43:29;1.70;;;0.70;;
31386;SDS011;18017;50.124;8.688;2022-11-09T03:45:55;2.35;;;0.60;;
31386;SDS011;18017;50.124;8.688;2022-11-09T03:48:21;2.67;;;0.70;;
31386;SDS011;18017;50.124;8.688;2022-11-09T03:50:47;4.57;;;0.90;;
31386;SDS011;18017;50.124;8.688;2022-11-09T03:53:12;4.03;;;0.88;;
31386;SDS011;18017;50.124;8.688;2022-11-09T03:55:38;4.03;;;0.82;;
31386;SDS011;18017;50.124;8.688;2022-11-09T03:58:04;2.50;;;0.73;;
31386;SDS011;18017;50.124;8.688;2022-11-09T04:00:31;7.57;;;1.10;;
31386;SDS011;18017;50.124;8.688;2022-11-09T04:02:57;3.78;;;0.93;;
31386;SDS011;18017;50.124;8.688;2022-11-09T04:05:23;3.33;;;0.90;;
31386;SDS011;18017;50.124;8.688;2022-11-09T04:07:49;4.22;;;1.02;;
31386;SDS011;18017;50.124;8.688;2022-11-09T04:10:19;1.90;;;1.02;;
31386;SDS011;18017;50.124;8.688;2022-11-09T04:12:46;4.05;;;1.05;;
31386;SDS011;18017;50.124;8.688;2022-11-09T04:15:11;2.78;;;0.95;;
31386;SDS011;18017;50.124;8.688;2022-11-09T04:17:37;5.10;;;1.00;;
31386;SDS011;18017;50.124;8.688;2022-11-09T04:20:04;3.90;;;1.02;;
31386;SDS011;18017;50.124;8.688;2022-11-09T04:22:30;5.15;;;1.23;;
31386;SDS011;18017;50.124;8.688;2022-11-09T04:24:56;2.47;;;1.30;;
31386;SDS011;18017;50.124;8.688;2022-11-09T04:27:21;4.05;;;1.05;;
31386;SDS011;18017;50.124;8.688;2022-11-09T04:29:47;4.68;;;1.08;;
31386;SDS011;18017;50.124;8.688;2022-11-09T04:32:13;1.70;;;0.93;;
31386;SDS011;18017;50.124;8.688;2022-11-09T04:34:38;2.90;;;1.10;;
31386;SDS011;18017;50.124;8.688;2022-11-09T04:37:05;2.65;;;1.15;;
31386;SDS011;18017;50.124;8.688;2022-11-09T04:39:31;1.63;;;1.00;;
31386;SDS011;18017;50.124;8.688;2022-11-09T04:41:57;6.38;;;1.40;;
31386;SDS011;18017;50.124;8.688;2022-11-09T04:44:22;3.08;;;1.10;;
31386;SDS011;18017;50.124;8.688;2022-11-09T04:46:48;2.92;;;1.08;;
31386;SDS011;18017;50.124;8.688;2022-11-09T04:49:13;3.97;;;1.30;;
31386;SDS011;18017;50.124;8.688;2022-11-09T04:51:39;5.38;;;1.15;;
31386;SDS011;18017;50.124;8.688;2022-11-09T04:54:04;3.03;;;1.23;;
31386;SDS011;18017;50.124;8.688;2022-11-09T04:56:30;3.75;;;1.23;;
31386;SDS011;18017;50.124;8.688;2022-11-09T04:58:56;5.03;;;1.33;;
31386;SDS011;18017;50.124;8.688;2022-11-09T05:01:21;6.43;;;1.30;;
31386;SDS011;18017;50.124;8.688;2022-11-09T05:03:47;5.32;;;1.73;;
31386;SDS011;18017;50.124;8.688;2022-11-09T05:06:13;4.38;;;1.40;;
31386;SDS011;18017;50.124;8.688;2022-11-09T05:09:01;4.60;;;1.50;;
31386;SDS011;18017;50.124;8.688;2022-11-09T05:11:29;3.83;;;1.20;;
31386;SDS011;18017;50.124;8.688;2022-11-09T05:13:55;4.10;;;1.70;;
31386;SDS011;18017;50.124;8.688;2022-11-09T05:16:20;3.85;;;1.40;;
31386;SDS011;18017;50.124;8.688;2022-11-09T05:18:47;5.38;;;1.65;;
31386;SDS011;18017;50.124;8.688;2022-11-09T05:21:13;2.78;;;1.30;;
31386;SDS011;18017;50.124;8.688;2022-11-09T05:23:39;3.10;;;1.30;;
31386;SDS011;18017;50.124;8.688;2022-11-09T05:26:23;4.10;;;1.92;;
31386;SDS011;18017;50.124;8.688;2022-11-09T05:28:51;7.22;;;2.17;;
31386;SDS011;18017;50.124;8.688;2022-11-09T05:31:17;5.05;;;1.90;;
31386;SDS011;18017;50.124;8.688;2022-11-09T05:33:43;4.65;;;1.83;;
31386;SDS011;18017;50.124;8.688;2022-11-09T05:36:08;5.38;;;1.90;;
31386;SDS011;18017;50.124;8.688;2022-11-09T05:38:34;4.75;;;2.40;;
31386;SDS011;18017;50.124;8.688;2022-11-09T05:41:00;4.85;;;2.15;;
31386;SDS011;18017;50.124;8.688;2022-11-09T05:43:25;4.88;;;1.98;;
31386;SDS011;18017;50.124;8.688;2022-11-09T05:45:51;6.65;;;2.13;;
31386;SDS011;18017;50.124;8.688;2022-11-09T05:48:17;6.40;;;2.20;;
31386;SDS011;18017;50.124;8.688;2022-11-09T05:50:43;7.65;;;2.45;;
31386;SDS011;18017;50.124;8.688;2022-11-09T05:53:09;6.78;;;2.15;;
31386;SDS011;18017;50.124;8.688;2022-11-09T05:55:35;4.35;;;1.80;;
31386;SDS011;18017;50.124;8.688;2022-11-09T05:58:01;4.38;;;2.47;;
31386;SDS011;18017;50.124;8.688;2022-11-09T06:00:27;5.15;;;2.10;;
31386;SDS011;18017;50.124;8.688;2022-11-09T06:03:00;6.10;;;2.22;;
31386;SDS011;18017;50.124;8.688;2022-11-09T06:05:27;3.95;;;2.08;;
31386;SDS011;18017;50.124;8.688;2022-11-09T06:07:53;7.20;;;2.03;;
31386;SDS011;18017;50.124;8.688;2022-11-09T06:10:18;8.00;;;3.08;;
31386;SDS011;18017;50.124;8.688;2022-11-09T06:12:49;5.93;;;2.35;;
31386;SDS011;18017;50.124;8.688;2022-11-09T06:15:14;7.97;;;2.85;;
31386;SDS011;18017;50.124;8.688;2022-11-09T06:17:40;5.50;;;2.88;;
31386;SDS011;18017;50.124;8.688;2022-11-09T06:20:06;9.98;;;3.33;;
31386;SDS011;18017;50.124;8.688;2022-11-09T06:22:32;8.95;;;3.40;;
31386;SDS011;18017;50.124;8.688;2022-11-09T06:24:57;13.23;;;3.45;;
31386;SDS011;18017;50.124;8.688;2022-11-09T06:27:23;11.10;;;3.80;;
31386;SDS011;18017;50.124;8.688;2022-11-09T06:29:48;11.40;;;3.78;;
31386;SDS011;18017;50.124;8.688;2022-11-09T06:32:14;8.70;;;4.10;;
31386;SDS011;18017;50.124;8.688;2022-11-09T06:34:40;10.48;;;4.57;;
31386;SDS011;18017;50.124;8.688;2022-11-09T06:37:08;10.55;;;4.82;;
31386;SDS011;18017;50.124;8.688;2022-11-09T06:39:33;9.57;;;4.63;;
31386;SDS011;18017;50.124;8.688;2022-11-09T06:41:59;9.98;;;4.80;;
31386;SDS011;18017;50.124;8.688;2022-11-09T06:44:25;16.88;;;5.78;;
31386;SDS011;18017;50.124;8.688;2022-11-09T06:46:50;10.85;;;5.32;;
31386;SDS011;18017;50.124;8.688;2022-11-09T06:49:16;17.75;;;5.70;;
31386;SDS011;18017;50.124;8.688;2022-11-09T06:51:41;11.88;;;5.90;;
31386;SDS011;18017;50.124;8.688;2022-11-09T06:54:07;9.77;;;5.00;;
31386;SDS011;18017;50.124;8.688;2022-11-09T06:56:32;11.75;;;5.40;;
31386;SDS011;18017;50.124;8.688;2022-11-09T06:58:58;12.30;;;5.40;;
31386;SDS011;18017;50.124;8.688;2022-11-09T07:01:26;10.07;;;5.20;;
31386;SDS011;18017;50.124;8.688;2022-11-09T07:03:53;10.38;;;4.97;;
31386;SDS011;18017;50.124;8.688;2022-11-09T07:06:19;16.48;;;5.72;;
31386;SDS011;18017;50.124;8.688;2022-11-09T07:08:44;16.63;;;5.75;;
31386;SDS011;18017;50.124;8.688;2022-11-09T07:11:11;14.27;;;5.05;;
31386;SDS011;18017;50.124;8.688;2022-11-09T07:13:40;12.63;;;4.60;;
31386;SDS011;18017;50.124;8.688;2022-11-09T07:16:05;11.52;;;4.97;;
31386;SDS011;18017;50.124;8.688;2022-11-09T07:18:32;12.05;;;4.53;;
31386;SDS011;18017;50.124;8.688;2022-11-09T07:20:58;12.27;;;4.90;;
31386;SDS011;18017;50.124;8.688;2022-11-09T07:23:24;13.90;;;4.55;;
31386;SDS011;18017;50.124;8.688;2022-11-09T07:25:49;9.55;;;4.25;;
31386;SDS011;18017;50.124;8.688;2022-11-09T07:28:16;7.70;;;3.92;;
31386;SDS011;18017;50.124;8.688;2022-11-09T07:30:42;8.85;;;3.85;;
31386;SDS011;18017;50.124;8.688;2022-11-09T07:33:14;9.55;;;3.97;;
31386;SDS011;18017;50.124;8.688;2022-11-09T07:35:44;9.40;;;3.15;;
31386;SDS011;18017;50.124;8.688;2022-11-09T07:38:10;9.20;;;3.83;;
31386;SDS011;18017;50.124;8.688;2022-11-09T07:40:37;9.88;;;3.88;;
31386;SDS011;18017;50.124;8.688;2022-11-09T07:43:04;7.32;;;3.67;;
31386;SDS011;18017;50.124;8.688;2022-11-09T07:45:31;12.93;;;3.90;;
31386;SDS011;18017;50.124;8.688;2022-11-09T07:47:58;7.50;;;3.80;;
31386;SDS011;18017;50.124;8.688;2022-11-09T07:50:26;8.13;;;3.17;;
31386;SDS011;18017;50.124;8.688;2022-11-09T07:52:54;10.05;;;4.13;;
31386;SDS011;18017;50.124;8.688;2022-11-09T07:55:20;7.38;;;3.35;;
31386;SDS011;18017;50.124;8.688;2022-11-09T07:57:46;7.38;;;3.40;;
31386;SDS011;18017;50.124;8.688;2022-11-09T08:00:12;8.25;;;3.60;;
31386;SDS011;18017;50.124;8.688;2022-11-09T08:02:38;7.40;;;3.28;;
31386;SDS011;18017;50.124;8.688;2022-11-09T08:05:04;7.57;;;3.17;;
31386;SDS011;18017;50.124;8.688;2022-11-09T08:07:31;7.50;;;3.10;;
31386;SDS011;18017;50.124;8.688;2022-11-09T08:09:57;4.95;;;2.63;;
31386;SDS011;18017;50.124;8.688;2022-11-09T08:12:23;6.95;;;2.92;;
31386;SDS011;18017;50.124;8.688;2022-11-09T08:14:48;5.65;;;2.90;;
31386;SDS011;18017;50.124;8.688;2022-11-09T08:17:14;5.88;;;2.92;;
31386;SDS011;18017;50.124;8.688;2022-11-09T08:19:39;7.93;;;2.85;;
31386;SDS011;18017;50.124;8.688;2022-11-09T08:22:05;5.63;;;2.63;;
31386;SDS011;18017;50.124;8.688;2022-11-09T08:24:31;7.07;;;2.53;;
31386;SDS011;18017;50.124;8.688;2022-11-09T08:26:56;6.97;;;2.78;;
31386;SDS011;18017;50.124;8.688;2022-11-09T08:29:22;4.30;;;2.75;;
31386;SDS011;18017;50.124;8.688;2022-11-09T08:31:48;3.65;;;2.17;;
31386;SDS011;18017;50.124;8.688;2022-11-09T08:34:15;5.55;;;1.90;;
31386;SDS011;18017;50.124;8.688;2022-11-09T08:36:41;7.10;;;2.22;;
31386;SDS011;18017;50.124;8.688;2022-11-09T08:39:06;7.85;;;2.55;;
31386;SDS011;18017;50.124;8.688;2022-11-09T08:41:32;7.70;;;2.40;;
31386;SDS011;18017;50.124;8.688;2022-11-09T08:43:58;5.18;;;2.47;;
31386;SDS011;18017;50.124;8.688;2022-11-09T08:46:23;5.35;;;2.58;;
31386;SDS011;18017;50.124;8.688;2022-11-09T08:48:49;5.57;;;2.28;;
31386;SDS011;18017;50.124;8.688;2022-11-09T08:51:15;5.25;;;2.47;;
31386;SDS011;18017;50.124;8.688;2022-11-09T08:53:40;4.95;;;2.20;;
31386;SDS011;18017;50.124;8.688;2022-11-09T08:56:06;4.07;;;2.00;;
31386;SDS011;18017;50.124;8.688;2022-11-09T08:58:32;4.43;;;2.40;;
31386;SDS011;18017;50.124;8.688;2022-11-09T09:00:59;5.43;;;2.53;;
31386;SDS011;18017;50.124;8.688;2022-11-09T09:03:24;4.97;;;2.38;;
31386;SDS011;18017;50.124;8.688;2022-11-09T09:05:50;5.07;;;2.40;;
31386;SDS011;18017;50.124;8.688;2022-11-09T09:08:15;2.80;;;2.22;;
31386;SDS011;18017;50.124;8.688;2022-11-09T09:10:45;3.85;;;1.70;;
31386;SDS011;18017;50.124;8.688;2022-11-09T09:13:11;3.75;;;1.60;;
31386;SDS011;18017;50.124;8.688;2022-11-09T09:15:37;4.93;;;1.40;;
31386;SDS011;18017;50.124;8.688;2022-11-09T09:18:02;3.85;;;1.40;;
31386;SDS011;18017;50.124;8.688;2022-11-09T09:20:28;3.30;;;1.10;;
31386;SDS011;18017;50.124;8.688;2022-11-09T09:22:58;2.83;;;1.20;;
31386;SDS011;18017;50.124;8.688;2022-11-09T09:25:25;2.25;;;1.10;;
31386;SDS011;18017;50.124;8.688;2022-11-09T09:27:51;3.15;;;1.10;;
31386;SDS011;18017;50.124;8.688;2022-11-09T09:30:17;3.42;;;1.05;;
31386;SDS011;18017;50.124;8.688;2022-11-09T09:32:43;3.78;;;1.00;;
31386;SDS011;18017;50.124;8.688;2022-11-09T09:35:08;1.67;;;0.90;;
31386;SDS011;18017;50.124;8.688;2022-11-09T09:37:34;2.63;;;1.05;;
31386;SDS011;18017;50.124;8.688;2022-11-09T09:40:00;2.58;;;0.98;;
31386;SDS011;18017;50.124;8.688;2022-11-09T09:42:36;2.45;;;0.90;;
31386;SDS011;18017;50.124;8.688;2022-11-09T09:45:11;4.28;;;0.88;;
31386;SDS011;18017;50.124;8.688;2022-11-09T09:50:29;1.17;;;0.70;;
31386;SDS011;18017;50.124;8.688;2022-11-09T09:53:06;2.10;;;0.90;;
31386;SDS011;18017;50.124;8.688;2022-11-09T09:55:40;1.55;;;0.60;;
31386;SDS011;18017;50.124;8.688;2022-11-09T10:00:37;4.32;;;0.60;;
31386;SDS011;18017;50.124;8.688;2022-11-09T10:03:04;1.67;;;0.30;;
31386;SDS011;18017;50.124;8.688;2022-11-09T10:05:44;1.27;;;0.40;;
31386;SDS011;18017;50.124;8.688;2022-11-09T10:11:12;3.10;;;0.28;;
31386;SDS011;18017;50.124;8.688;2022-11-09T10:13:52;1.73;;;0.40;;
31386;SDS011;18017;50.124;8.688;2022-11-09T10:19:22;2.30;;;0.30;;
31386;SDS011;18017;50.124;8.688;2022-11-09T10:22:06;3.63;;;0.30;;
31386;SDS011;18017;50.124;8.688;2022-11-09T10:24:38;1.05;;;0.30;;
31386;SDS011;18017;50.124;8.688;2022-11-09T10:27:26;4.95;;;0.30;;
31386;SDS011;18017;50.124;8.688;2022-11-09T10:29:55;1.80;;;0.10;;
31386;SDS011;18017;50.124;8.688;2022-11-09T10:32:26;0.85;;;0.20;;
31386;SDS011;18017;50.124;8.688;2022-11-09T10:37:33;2.80;;;0.40;;
31386;SDS011;18017;50.124;8.688;2022-11-09T10:40:05;4.10;;;0.38;;
31386;SDS011;18017;50.124;8.688;2022-11-09T10:42:36;0.50;;;0.25;;
31386;SDS011;18017;50.124;8.688;2022-11-09T10:45:12;3.53;;;0.30;;
31386;SDS011;18017;50.124;8.688;2022-11-09T10:47:49;4.00;;;0.38;;
31386;SDS011;18017;50.124;8.688;2022-11-09T10:50:36;4.63;;;0.30;;
31386;SDS011;18017;50.124;8.688;2022-11-09T10:55:48;3.88;;;0.57;;
31386;SDS011;18017;50.124;8.688;2022-11-09T11:01:04;2.05;;;0.38;;
31386;SDS011;18017;50.124;8.688;2022-11-09T11:03:42;1.52;;;0.20;;
31386;SDS011;18017;50.124;8.688;2022-11-09T11:06:16;5.43;;;0.32;;
31386;SDS011;18017;50.124;8.688;2022-11-09T11:08:51;1.88;;;0.22;;
31386;SDS011;18017;50.124;8.688;2022-11-09T11:13:50;2.08;;;0.30;;
31386;SDS011;18017;50.124;8.688;2022-11-09T11:16:37;1.25;;;0.20;;
31386;SDS011;18017;50.124;8.688;2022-11-09T11:19:04;1.48;;;0.20;;
31386;SDS011;18017;50.124;8.688;2022-11-09T11:24:42;4.03;;;0.28;;
31386;SDS011;18017;50.124;8.688;2022-11-09T11:27:35;6.43;;;0.50;;
31386;SDS011;18017;50.124;8.688;2022-11-09T11:30:08;1.13;;;0.10;;
31386;SDS011;18017;50.124;8.688;2022-11-09T11:32:36;2.37;;;0.30;;
31386;SDS011;18017;50.124;8.688;2022-11-09T11:35:03;3.45;;;0.40;;
31386;SDS011;18017;50.124;8.688;2022-11-09T11:37:40;1.20;;;0.38;;
31386;SDS011;18017;50.124;8.688;2022-11-09T11:40:37;3.47;;;0.47;;
31386;SDS011;18017;50.124;8.688;2022-11-09T11:46:09;1.00;;;0.25;;
31386;SDS011;18017;50.124;8.688;2022-11-09T11:56:33;3.25;;;0.30;;
31386;SDS011;18017;50.124;8.688;2022-11-09T12:02:34;0.95;;;0.30;;
31386;SDS011;18017;50.124;8.688;2022-11-09T12:10:45;3.40;;;0.40;;
31386;SDS011;18017;50.124;8.688;2022-11-09T12:13:40;1.00;;;0.22;;
31386;SDS011;18017;50.124;8.688;2022-11-09T12:16:24;2.45;;;0.30;;
31386;SDS011;18017;50.124;8.688;2022-11-09T12:24:14;1.60;;;0.20;;
31386;SDS011;18017;50.124;8.688;2022-11-09T12:29:18;3.08;;;0.30;;
31386;SDS011;18017;50.124;8.688;2022-11-09T12:31:52;2.58;;;0.20;;
31386;SDS011;18017;50.124;8.688;2022-11-09T12:34:46;2.03;;;0.35;;
31386;SDS011;18017;50.124;8.688;2022-11-09T12:40:33;4.07;;;0.40;;
31386;SDS011;18017;50.124;8.688;2022-11-09T12:45:52;7.75;;;0.50;;
31386;SDS011;18017;50.124;8.688;2022-11-09T12:48:36;3.08;;;0.50;;
31386;SDS011;18017;50.124;8.688;2022-11-09T12:51:03;1.52;;;0.30;;
31386;SDS011;18017;50.124;8.688;2022-11-09T12:53:32;2.15;;;0.40;;
31386;SDS011;18017;50.124;8.688;2022-11-09T12:58:36;5.88;;;0.35;;
31386;SDS011;18017;50.124;8.688;2022-11-09T13:01:04;1.35;;;0.57;;
31386;SDS011;18017;50.124;8.688;2022-11-09T13:03:35;2.53;;;0.40;;
31386;SDS011;18017;50.124;8.688;2022-11-09T13:08:37;1.98;;;0.40;;
31386;SDS011;18017;50.124;8.688;2022-11-09T13:11:08;2.97;;;0.40;;
31386;SDS011;18017;50.124;8.688;2022-11-09T13:13:45;2.30;;;0.20;;
31386;SDS011;18017;50.124;8.688;2022-11-09T13:16:32;4.65;;;0.45;;
31386;SDS011;18017;50.124;8.688;2022-11-09T13:19:00;2.63;;;0.35;;
31386;SDS011;18017;50.124;8.688;2022-11-09T13:23:52;1.50;;;0.20;;
31386;SDS011;18017;50.124;8.688;2022-11-09T13:34:57;3.37;;;0.40;;
31386;SDS011;18017;50.124;8.688;2022-11-09T13:37:34;3.80;;;0.40;;
31386;SDS011;18017;50.124;8.688;2022-11-09T13:41:38;2.78;;;0.43;;
31386;SDS011;18017;50.124;8.688;2022-11-09T13:43:02;0.45;;;0.28;;
31386;SDS011;18017;50.124;8.688;2022-11-09T13:46:20;4.50;;;0.55;;
31386;SDS011;18017;50.124;8.688;2022-11-09T13:48:47;1.48;;;0.50;;
31386;SDS011;18017;50.124;8.688;2022-11-09T13:51:15;2.38;;;0.32;;
31386;SDS011;18017;50.124;8.688;2022-11-09T13:59:43;8.30;;;0.70;;
31386;SDS011;18017;50.124;8.688;2022-11-09T14:01:50;4.88;;;0.60;;
31386;SDS011;18017;50.124;8.688;2022-11-09T14:04:37;2.13;;;0.38;;
31386;SDS011;18017;50.124;8.688;2022-11-09T14:09:55;4.47;;;0.40;;
31386;SDS011;18017;50.124;8.688;2022-11-09T14:18:34;2.97;;;0.40;;
31386;SDS011;18017;50.124;8.688;2022-11-09T14:21:12;1.90;;;0.47;;
31386;SDS011;18017;50.124;8.688;2022-11-09T14:23:54;3.50;;;0.65;;
31386;SDS011;18017;50.124;8.688;2022-11-09T14:26:26;6.18;;;0.68;;
31386;SDS011;18017;50.124;8.688;2022-11-09T14:28:52;2.13;;;0.30;;
31386;SDS011;18017;50.124;8.688;2022-11-09T14:31:28;2.22;;;0.45;;
31386;SDS011;18017;50.124;8.688;2022-11-09T14:33:58;3.03;;;0.52;;
31386;SDS011;18017;50.124;8.688;2022-11-09T14:36:25;3.30;;;0.30;;
31386;SDS011;18017;50.124;8.688;2022-11-09T14:38:52;2.45;;;0.40;;
31386;SDS011;18017;50.124;8.688;2022-11-09T14:41:22;6.03;;;0.47;;
31386;SDS011;18017;50.124;8.688;2022-11-09T14:43:50;2.75;;;0.40;;
31386;SDS011;18017;50.124;8.688;2022-11-09T14:46:18;1.75;;;0.45;;
31386;SDS011;18017;50.124;8.688;2022-11-09T14:48:53;4.57;;;0.55;;
31386;SDS011;18017;50.124;8.688;2022-11-09T14:51:27;6.07;;;0.43;;
31386;SDS011;18017;50.124;8.688;2022-11-09T14:53:58;3.38;;;0.32;;
31386;SDS011;18017;50.124;8.688;2022-11-09T14:56:25;2.92;;;0.20;;
31386;SDS011;18017;50.124;8.688;2022-11-09T14:58:52;3.95;;;0.30;;
31386;SDS011;18017;50.124;8.688;2022-11-09T15:01:24;3.60;;;0.30;;
31386;SDS011;18017;50.124;8.688;2022-11-09T15:06:44;5.25;;;0.65;;
31386;SDS011;18017;50.124;8.688;2022-11-09T15:09:17;6.20;;;0.38;;
31386;SDS011;18017;50.124;8.688;2022-11-09T15:11:44;3.65;;;1.02;;
31386;SDS011;18017;50.124;8.688;2022-11-09T15:14:30;3.67;;;0.38;;
31386;SDS011;18017;50.124;8.688;2022-11-09T15:19:54;2.95;;;0.38;;
31386;SDS011;18017;50.124;8.688;2022-11-09T15:27:58;4.25;;;0.35;;
31386;SDS011;18017;50.124;8.688;2022-11-09T15:32:59;4.60;;;0.60;;
31386;SDS011;18017;50.124;8.688;2022-11-09T15:35:25;3.70;;;0.73;;
31386;SDS011;18017;50.124;8.688;2022-11-09T15:37:51;3.13;;;0.55;;
31386;SDS011;18017;50.124;8.688;2022-11-09T15:40:18;4.95;;;0.60;;
31386;SDS011;18017;50.124;8.688;2022-11-09T15:42:46;4.85;;;0.60;;
31386;SDS011;18017;50.124;8.688;2022-11-09T15:45:16;2.05;;;0.45;;
31386;SDS011;18017;50.124;8.688;2022-11-09T15:47:52;4.82;;;0.43;;
31386;SDS011;18017;50.124;8.688;2022-11-09T15:50:20;4.78;;;0.52;;
31386;SDS011;18017;50.124;8.688;2022-11-09T15:52:48;4.60;;;0.60;;
31386;SDS011;18017;50.124;8.688;2022-11-09T15:55:16;3.20;;;0.60;;
31386;SDS011;18017;50.124;8.688;2022-11-09T15:57:46;3.65;;;0.60;;
31386;SDS011;18017;50.124;8.688;2022-11-09T16:00:13;4.38;;;1.05;;
31386;SDS011;18017;50.124;8.688;2022-11-09T16:02:40;3.58;;;1.02;;
31386;SDS011;18017;50.124;8.688;2022-11-09T16:05:06;6.47;;;1.65;;
31386;SDS011;18017;50.124;8.688;2022-11-09T16:07:32;4.05;;;1.42;;
31386;SDS011;18017;50.124;8.688;2022-11-09T16:09:57;5.47;;;1.45;;
31386;SDS011;18017;50.124;8.688;2022-11-09T16:12:23;7.63;;;1.13;;
31386;SDS011;18017;50.124;8.688;2022-11-09T16:14:49;5.03;;;0.70;;
31386;SDS011;18017;50.124;8.688;2022-11-09T16:17:14;5.88;;;0.77;;
31386;SDS011;18017;50.124;8.688;2022-11-09T16:19:40;3.15;;;0.50;;
31386;SDS011;18017;50.124;8.688;2022-11-09T16:22:07;2.42;;;0.40;;
31386;SDS011;18017;50.124;8.688;2022-11-09T16:24:33;1.08;;;0.30;;
31386;SDS011;18017;50.124;8.688;2022-11-09T16:26:59;3.13;;;0.55;;
31386;SDS011;18017;50.124;8.688;2022-11-09T16:29:26;3.70;;;0.50;;
31386;SDS011;18017;50.124;8.688;2022-11-09T16:31:53;3.97;;;0.50;;
31386;SDS011;18017;50.124;8.688;2022-11-09T16:34:19;6.40;;;0.50;;
31386;SDS011;18017;50.124;8.688;2022-11-09T16:36:45;3.35;;;0.40;;
31386;SDS011;18017;50.124;8.688;2022-11-09T16:39:11;3.53;;;0.47;;
31386;SDS011;18017;50.124;8.688;2022-11-09T16:41:41;4.93;;;0.40;;
31386;SDS011;18017;50.124;8.688;2022-11-09T16:44:13;1.05;;;0.30;;
31386;SDS011;18017;50.124;8.688;2022-11-09T16:46:41;2.28;;;0.82;;
31386;SDS011;18017;50.124;8.688;2022-11-09T16:49:09;3.30;;;0.30;;